createdAt,value
2019-01-10T00:00:32.754Z,1012.79
2019-01-10T00:01:32.719Z,1012.85
2019-01-10T00:02:32.724Z,1012.84
2019-01-10T00:03:32.717Z,1012.86
2019-01-10T00:04:32.701Z,1012.89
2019-01-10T00:05:32.744Z,1012.89
2019-01-10T00:06:32.697Z,1012.93
2019-01-10T00:07:32.613Z,1012.92
2019-01-10T00:08:32.613Z,1012.85
2019-01-10T00:09:32.600Z,1012.93
2019-01-10T00:10:32.590Z,1012.98
2019-01-10T00:11:32.590Z,1012.97
2019-01-10T00:12:39.352Z,1012.95
2019-01-10T00:13:33.572Z,1012.97
2019-01-10T00:14:32.553Z,1012.99
2019-01-10T00:15:32.536Z,1012.97
2019-01-10T00:16:32.568Z,1012.98
2019-01-10T00:17:32.509Z,1013.01
2019-01-10T00:18:32.511Z,1012.97
2019-01-10T00:19:32.489Z,1013.03
2019-01-10T00:20:32.477Z,1013.00
2019-01-10T00:21:32.471Z,1012.99
2019-01-10T00:22:32.475Z,1013.00
2019-01-10T00:23:32.459Z,1013.05
2019-01-10T00:24:32.445Z,1013.05
2019-01-10T00:25:32.423Z,1013.05
2019-01-10T00:26:32.416Z,1013.11
2019-01-10T00:27:32.437Z,1013.07
2019-01-10T00:28:32.389Z,1013.15
2019-01-10T00:29:32.391Z,1013.14
2019-01-10T00:30:32.375Z,1013.16
2019-01-10T00:31:32.354Z,1013.14
2019-01-10T00:32:32.346Z,1013.18
2019-01-10T00:33:32.375Z,1013.19
2019-01-10T00:34:32.316Z,1013.20
2019-01-10T00:35:32.317Z,1013.20
2019-01-10T00:36:32.318Z,1013.19
2019-01-10T00:37:32.321Z,1013.23
2019-01-10T00:38:33.057Z,1013.21
2019-01-10T00:39:32.288Z,1013.21
2019-01-10T00:40:32.253Z,1013.19
2019-01-10T00:41:32.243Z,1013.22
2019-01-10T00:42:32.237Z,1013.31
2019-01-10T00:43:32.225Z,1013.27
2019-01-10T00:44:32.219Z,1013.27
2019-01-10T00:45:32.203Z,1013.28
2019-01-10T00:46:32.185Z,1013.29
2019-01-10T00:47:32.176Z,1013.30
2019-01-10T00:48:32.163Z,1013.26
2019-01-10T00:49:32.153Z,1013.21
2019-01-10T00:50:32.169Z,1013.30
2019-01-10T00:51:32.160Z,1013.29
2019-01-10T00:52:32.118Z,1013.35
2019-01-10T00:53:32.216Z,1013.32
2019-01-10T00:54:35.346Z,1013.34
2019-01-10T00:55:32.161Z,1013.41
2019-01-10T00:56:32.103Z,1013.46
2019-01-10T00:57:32.116Z,1013.44
2019-01-10T00:58:32.051Z,1013.43
2019-01-10T00:59:32.037Z,1013.47
2019-01-10T01:00:32.032Z,1013.49
2019-01-10T01:01:32.089Z,1013.44
2019-01-10T01:02:32.024Z,1013.49
2019-01-10T01:03:31.998Z,1013.52
2019-01-10T01:04:31.999Z,1013.58
2019-01-10T01:05:31.987Z,1013.53
2019-01-10T01:06:31.972Z,1013.51
2019-01-10T01:07:31.974Z,1013.55
2019-01-10T01:08:31.968Z,1013.53
2019-01-10T01:09:31.937Z,1013.57
2019-01-10T01:10:31.937Z,1013.59
2019-01-10T01:11:31.919Z,1013.58
2019-01-10T01:12:31.926Z,1013.57
2019-01-10T01:13:31.896Z,1013.60
2019-01-10T01:14:31.884Z,1013.64
2019-01-10T01:15:31.892Z,1013.65
2019-01-10T01:16:31.868Z,1013.67
2019-01-10T01:17:31.854Z,1013.70
2019-01-10T01:18:31.854Z,1013.75
2019-01-10T01:19:32.099Z,1013.73
2019-01-10T01:20:31.820Z,1013.80
2019-01-10T01:21:31.809Z,1013.77
2019-01-10T01:22:31.810Z,1013.78
2019-01-10T01:23:31.778Z,1013.76
2019-01-10T01:24:31.771Z,1013.79
2019-01-10T01:25:31.784Z,1013.85
2019-01-10T01:26:31.765Z,1013.82
2019-01-10T01:27:31.744Z,1013.89
2019-01-10T01:28:31.738Z,1013.82
2019-01-10T01:29:31.716Z,1013.88
2019-01-10T01:30:31.723Z,1013.91
2019-01-10T01:31:31.694Z,1013.90
2019-01-10T01:32:31.689Z,1013.92
2019-01-10T01:33:31.688Z,1013.88
2019-01-10T01:34:31.671Z,1013.87
2019-01-10T01:35:31.685Z,1013.92
2019-01-10T01:36:31.643Z,1013.92
2019-01-10T01:37:31.632Z,1013.91
2019-01-10T01:38:31.630Z,1013.93
2019-01-10T01:39:31.614Z,1013.97
2019-01-10T01:40:31.595Z,1014.01
2019-01-10T01:41:31.609Z,1014.03
2019-01-10T01:42:31.571Z,1014.03
2019-01-10T01:43:31.569Z,1014.10
2019-01-10T01:44:31.568Z,1014.15
2019-01-10T01:45:31.544Z,1014.15
2019-01-10T01:46:31.567Z,1014.17
2019-01-10T01:47:31.579Z,1014.19
2019-01-10T01:48:31.512Z,1014.21
2019-01-10T01:49:31.502Z,1014.18
2019-01-10T01:50:31.497Z,1014.26
2019-01-10T01:51:31.485Z,1014.27
2019-01-10T01:52:31.484Z,1014.22
2019-01-10T01:53:31.471Z,1014.27
2019-01-10T01:54:31.438Z,1014.33
2019-01-10T01:55:31.436Z,1014.32
2019-01-10T01:56:31.416Z,1014.32
2019-01-10T01:57:31.441Z,1014.34
2019-01-10T01:58:31.396Z,1014.41
2019-01-10T01:59:31.383Z,1014.44
2019-01-10T02:00:31.367Z,1014.45
2019-01-10T02:01:31.367Z,1014.44
2019-01-10T02:02:31.349Z,1014.43
2019-01-10T02:03:31.376Z,1014.46
2019-01-10T02:04:31.368Z,1014.43
2019-01-10T02:05:31.318Z,1014.55
2019-01-10T02:06:31.325Z,1014.52
2019-01-10T02:07:31.307Z,1014.50
2019-01-10T02:08:31.278Z,1014.55
2019-01-10T02:09:31.337Z,1014.52
2019-01-10T02:10:31.342Z,1014.54
2019-01-10T02:11:31.251Z,1014.59
2019-01-10T02:12:31.241Z,1014.59
2019-01-10T02:13:31.229Z,1014.60
2019-01-10T02:14:31.266Z,1014.62
2019-01-10T02:15:31.203Z,1014.58
2019-01-10T02:16:31.190Z,1014.64
2019-01-10T02:17:31.184Z,1014.67
2019-01-10T02:18:31.169Z,1014.67
2019-01-10T02:19:31.163Z,1014.66
2019-01-10T02:20:31.165Z,1014.70
2019-01-10T02:21:31.135Z,1014.67
2019-01-10T02:22:31.129Z,1014.64
2019-01-10T02:23:31.119Z,1014.65
2019-01-10T02:24:31.106Z,1014.69
2019-01-10T02:25:31.098Z,1014.69
2019-01-10T02:26:31.104Z,1014.68
2019-01-10T02:27:31.082Z,1014.68
2019-01-10T02:28:31.059Z,1014.71
2019-01-10T02:29:31.057Z,1014.73
2019-01-10T02:30:31.053Z,1014.73
2019-01-10T02:31:31.033Z,1014.74
2019-01-10T02:32:31.022Z,1014.71
2019-01-10T02:33:31.021Z,1014.71
2019-01-10T02:34:31.000Z,1014.75
2019-01-10T02:35:31.014Z,1014.76
2019-01-10T02:36:30.979Z,1014.77
2019-01-10T02:37:30.973Z,1014.73
2019-01-10T02:38:30.971Z,1014.79
2019-01-10T02:39:30.940Z,1014.79
2019-01-10T02:40:30.952Z,1014.85
2019-01-10T02:41:30.925Z,1014.85
2019-01-10T02:42:30.910Z,1014.89
2019-01-10T02:43:30.909Z,1014.84
2019-01-10T02:44:30.888Z,1014.87
2019-01-10T02:45:30.897Z,1014.85
2019-01-10T02:46:30.899Z,1014.80
2019-01-10T02:47:30.859Z,1014.82
2019-01-10T02:48:30.844Z,1014.86
2019-01-10T02:49:30.843Z,1014.90
2019-01-10T02:50:30.844Z,1014.90
2019-01-10T02:51:30.807Z,1014.93
2019-01-10T02:52:30.811Z,1014.91
2019-01-10T02:53:30.798Z,1014.88
2019-01-10T02:54:30.774Z,1014.88
2019-01-10T02:55:30.763Z,1014.92
2019-01-10T02:56:30.754Z,1014.92
2019-01-10T02:57:30.785Z,1014.88
2019-01-10T02:58:30.729Z,1014.89
2019-01-10T02:59:39.031Z,1014.89
2019-01-10T03:00:31.601Z,1014.90
2019-01-10T03:01:30.696Z,1014.88
2019-01-10T03:02:30.690Z,1014.89
2019-01-10T03:03:30.698Z,1014.96
2019-01-10T03:04:30.670Z,1014.95
2019-01-10T03:05:30.748Z,1014.97
2019-01-10T03:06:30.640Z,1014.95
2019-01-10T03:07:30.629Z,1014.94
2019-01-10T03:08:30.633Z,1014.97
2019-01-10T03:09:30.613Z,1014.95
2019-01-10T03:10:30.602Z,1015.00
2019-01-10T03:11:30.586Z,1014.98
2019-01-10T03:12:30.581Z,1014.96
2019-01-10T03:13:36.454Z,1015.00
2019-01-10T03:14:31.557Z,1014.99
2019-01-10T03:15:30.545Z,1015.05
2019-01-10T03:16:30.554Z,1015.05
2019-01-10T03:17:30.519Z,1015.05
2019-01-10T03:18:30.515Z,1015.04
2019-01-10T03:19:30.511Z,1015.06
2019-01-10T03:20:30.485Z,1015.11
2019-01-10T03:21:30.489Z,1015.08
2019-01-10T03:22:30.463Z,1015.11
2019-01-10T03:23:30.454Z,1015.10
2019-01-10T03:24:30.451Z,1015.10
2019-01-10T03:25:30.447Z,1015.09
2019-01-10T03:26:30.462Z,1015.08
2019-01-10T03:27:30.434Z,1015.09
2019-01-10T03:28:30.401Z,1015.06
2019-01-10T03:29:30.391Z,1015.10
2019-01-10T03:30:30.386Z,1015.07
2019-01-10T03:31:30.369Z,1015.06
2019-01-10T03:32:30.374Z,1015.07
2019-01-10T03:33:30.353Z,1014.97
2019-01-10T03:34:30.340Z,1015.07
2019-01-10T03:35:30.345Z,1015.04
2019-01-10T03:36:30.311Z,1015.11
2019-01-10T03:37:30.305Z,1015.09
2019-01-10T03:38:30.306Z,1015.08
2019-01-10T03:39:30.277Z,1015.10
2019-01-10T03:40:30.291Z,1015.10
2019-01-10T03:41:30.290Z,1015.13
2019-01-10T03:42:30.250Z,1015.15
2019-01-10T03:43:30.239Z,1015.08
2019-01-10T03:44:34.383Z,1015.15
2019-01-10T03:45:30.216Z,1015.16
2019-01-10T03:46:30.211Z,1015.14
2019-01-10T03:47:30.190Z,1015.10
2019-01-10T03:48:30.179Z,1015.15
2019-01-10T03:49:30.181Z,1015.15
2019-01-10T03:50:30.159Z,1015.15
2019-01-10T03:51:30.153Z,1015.20
2019-01-10T03:52:30.165Z,1015.14
2019-01-10T03:53:30.139Z,1015.18
2019-01-10T03:54:30.134Z,1015.18
2019-01-10T03:55:30.101Z,1015.21
2019-01-10T03:56:30.100Z,1015.18
2019-01-10T03:57:30.079Z,1015.16
2019-01-10T03:58:30.078Z,1015.21
2019-01-10T03:59:30.062Z,1015.24
2019-01-10T04:00:30.050Z,1015.27
2019-01-10T04:01:30.039Z,1015.26
2019-01-10T04:02:30.081Z,1015.20
2019-01-10T04:03:30.018Z,1015.25
2019-01-10T04:04:30.013Z,1015.25
2019-01-10T04:05:29.995Z,1015.31
2019-01-10T04:06:29.986Z,1015.26
2019-01-10T04:07:29.991Z,1015.27
2019-01-10T04:08:29.964Z,1015.26
2019-01-10T04:09:29.968Z,1015.33
2019-01-10T04:10:29.938Z,1015.30
2019-01-10T04:11:29.931Z,1015.35
2019-01-10T04:12:30.140Z,1015.37
2019-01-10T04:13:29.912Z,1015.34
2019-01-10T04:14:29.894Z,1015.32
2019-01-10T04:15:29.908Z,1015.28
2019-01-10T04:16:29.888Z,1015.36
2019-01-10T04:17:29.873Z,1015.35
2019-01-10T04:18:29.854Z,1015.32
2019-01-10T04:19:29.844Z,1015.40
2019-01-10T04:20:29.847Z,1015.39
2019-01-10T04:21:29.824Z,1015.41
2019-01-10T04:22:29.807Z,1015.38
2019-01-10T04:23:29.843Z,1015.38
2019-01-10T04:24:29.823Z,1015.47
2019-01-10T04:25:29.773Z,1015.44
2019-01-10T04:26:29.761Z,1015.45
2019-01-10T04:27:29.751Z,1015.43
2019-01-10T04:28:29.746Z,1015.45
2019-01-10T04:29:29.729Z,1015.49
2019-01-10T04:30:29.743Z,1015.47
2019-01-10T04:31:29.709Z,1015.47
2019-01-10T04:32:29.698Z,1015.51
2019-01-10T04:33:29.691Z,1015.50
2019-01-10T04:34:29.678Z,1015.49
2019-01-10T04:35:29.703Z,1015.47
2019-01-10T04:36:30.311Z,1015.48
2019-01-10T04:37:29.797Z,1015.60
2019-01-10T04:38:29.643Z,1015.52
2019-01-10T04:39:29.628Z,1015.54
2019-01-10T04:40:29.649Z,1015.53
2019-01-10T04:41:29.603Z,1015.57
2019-01-10T04:42:29.585Z,1015.57
2019-01-10T04:43:29.580Z,1015.56
2019-01-10T04:44:29.569Z,1015.62
2019-01-10T04:45:29.589Z,1015.58
2019-01-10T04:46:29.554Z,1015.61
2019-01-10T04:47:29.531Z,1015.57
2019-01-10T04:48:29.618Z,1015.65
2019-01-10T04:49:29.513Z,1015.63
2019-01-10T04:50:29.517Z,1015.66
2019-01-10T04:51:29.496Z,1015.65
2019-01-10T04:52:29.483Z,1015.65
2019-01-10T04:53:29.510Z,1015.70
2019-01-10T04:54:29.458Z,1015.72
2019-01-10T04:55:29.475Z,1015.71
2019-01-10T04:56:29.439Z,1015.69
2019-01-10T04:57:29.424Z,1015.72
2019-01-10T04:58:29.420Z,1015.74
2019-01-10T04:59:29.406Z,1015.73
2019-01-10T05:00:29.398Z,1015.73
2019-01-10T05:01:29.429Z,1015.76
2019-01-10T05:02:29.380Z,1015.71
2019-01-10T05:03:29.358Z,1015.74
2019-01-10T05:04:29.344Z,1015.80
2019-01-10T05:05:29.338Z,1015.80
2019-01-10T05:06:29.355Z,1015.80
2019-01-10T05:07:29.309Z,1015.84
2019-01-10T05:08:29.305Z,1015.77
2019-01-10T05:09:29.289Z,1015.81
2019-01-10T05:10:29.285Z,1015.81
2019-01-10T05:11:29.636Z,1015.87
2019-01-10T05:12:29.272Z,1015.84
2019-01-10T05:13:29.251Z,1015.89
2019-01-10T05:14:29.236Z,1015.86
2019-01-10T05:15:29.221Z,1015.83
2019-01-10T05:16:29.218Z,1015.81
2019-01-10T05:17:30.262Z,1015.89
2019-01-10T05:18:29.191Z,1015.91
2019-01-10T05:19:29.184Z,1015.93
2019-01-10T05:20:29.175Z,1015.95
2019-01-10T05:21:29.164Z,1015.95
2019-01-10T05:22:29.188Z,1015.97
2019-01-10T05:23:29.137Z,1015.97
2019-01-10T05:24:29.123Z,1015.96
2019-01-10T05:25:29.112Z,1016.01
2019-01-10T05:26:29.099Z,1016.02
2019-01-10T05:27:29.095Z,1016.07
2019-01-10T05:28:29.097Z,1016.03
2019-01-10T05:29:29.070Z,1016.12
2019-01-10T05:30:29.058Z,1016.08
2019-01-10T05:31:29.054Z,1016.12
2019-01-10T05:32:29.065Z,1016.12
2019-01-10T05:33:29.022Z,1016.12
2019-01-10T05:34:29.011Z,1016.14
2019-01-10T05:35:28.999Z,1016.18
2019-01-10T05:36:28.998Z,1016.19
2019-01-10T05:37:28.981Z,1016.21
2019-01-10T05:38:28.982Z,1016.19
2019-01-10T05:39:28.961Z,1016.16
2019-01-10T05:40:28.951Z,1016.20
2019-01-10T05:41:28.937Z,1016.23
2019-01-10T05:42:28.922Z,1016.23
2019-01-10T05:43:29.044Z,1016.20
2019-01-10T05:44:28.935Z,1016.22
2019-01-10T05:45:28.889Z,1016.28
2019-01-10T05:46:28.882Z,1016.28
2019-01-10T05:47:28.867Z,1016.29
2019-01-10T05:48:28.863Z,1016.28
2019-01-10T05:49:28.913Z,1016.30
2019-01-10T05:50:28.833Z,1016.27
2019-01-10T05:51:28.829Z,1016.35
2019-01-10T05:52:28.812Z,1016.31
2019-01-10T05:53:28.804Z,1016.33
2019-01-10T05:54:28.790Z,1016.30
2019-01-10T05:55:28.804Z,1016.30
2019-01-10T05:56:28.768Z,1016.34
2019-01-10T05:57:28.756Z,1016.35
2019-01-10T05:58:28.748Z,1016.43
2019-01-10T05:59:28.815Z,1016.40
2019-01-10T06:00:28.809Z,1016.43
2019-01-10T06:01:28.712Z,1016.46
2019-01-10T06:02:28.706Z,1016.44
2019-01-10T06:03:28.694Z,1016.42
2019-01-10T06:04:28.727Z,1016.44
2019-01-10T06:05:28.673Z,1016.45
2019-01-10T06:06:28.706Z,1016.49
2019-01-10T06:07:28.649Z,1016.52
2019-01-10T06:08:28.657Z,1016.54
2019-01-10T06:09:28.628Z,1016.51
2019-01-10T06:10:28.665Z,1016.52
2019-01-10T06:11:28.602Z,1016.47
2019-01-10T06:12:28.624Z,1016.50
2019-01-10T06:13:28.579Z,1016.52
2019-01-10T06:14:35.493Z,1016.58
2019-01-10T06:15:29.599Z,1016.61
2019-01-10T06:16:28.551Z,1016.58
2019-01-10T06:17:28.536Z,1016.65
2019-01-10T06:18:28.531Z,1016.68
2019-01-10T06:19:28.514Z,1016.69
2019-01-10T06:20:28.513Z,1016.70
2019-01-10T06:21:28.504Z,1016.77
2019-01-10T06:22:28.485Z,1016.79
2019-01-10T06:23:28.472Z,1016.78
2019-01-10T06:24:28.466Z,1016.78
2019-01-10T06:25:28.453Z,1016.77
2019-01-10T06:26:28.445Z,1016.82
2019-01-10T06:27:28.440Z,1016.83
2019-01-10T06:28:28.439Z,1016.84
2019-01-10T06:29:28.402Z,1016.87
2019-01-10T06:30:28.401Z,1016.87
2019-01-10T06:31:28.382Z,1016.86
2019-01-10T06:32:28.398Z,1016.85
2019-01-10T06:33:28.365Z,1016.84
2019-01-10T06:34:28.354Z,1016.88
2019-01-10T06:35:28.335Z,1016.91
2019-01-10T06:36:28.344Z,1016.91
2019-01-10T06:37:28.356Z,1016.91
2019-01-10T06:38:28.302Z,1016.89
2019-01-10T06:39:28.300Z,1016.91
2019-01-10T06:40:28.288Z,1016.94
2019-01-10T06:41:28.272Z,1016.85
2019-01-10T06:42:28.267Z,1016.97
2019-01-10T06:43:28.287Z,1016.93
2019-01-10T06:44:28.247Z,1016.94
2019-01-10T06:45:28.226Z,1016.98
2019-01-10T06:46:28.222Z,1017.04
2019-01-10T06:47:28.210Z,1016.99
2019-01-10T06:48:28.219Z,1017.02
2019-01-10T06:49:28.200Z,1017.07
2019-01-10T06:50:28.173Z,1017.06
2019-01-10T06:51:28.173Z,1017.08
2019-01-10T06:52:28.159Z,1017.06
2019-01-10T06:53:28.225Z,1017.13
2019-01-10T06:54:28.144Z,1017.12
2019-01-10T06:55:28.167Z,1017.14
2019-01-10T06:56:28.107Z,1017.15
2019-01-10T06:57:28.101Z,1017.12
2019-01-10T06:58:28.089Z,1017.13
2019-01-10T06:59:28.083Z,1017.16
2019-01-10T07:00:28.069Z,1017.11
2019-01-10T07:01:28.053Z,1017.14
2019-01-10T07:02:28.047Z,1017.18
2019-01-10T07:03:28.028Z,1017.15
2019-01-10T07:04:28.035Z,1017.14
2019-01-10T07:05:28.032Z,1017.20
2019-01-10T07:06:28.003Z,1017.19
2019-01-10T07:07:28.001Z,1017.20
2019-01-10T07:08:27.976Z,1017.21
2019-01-10T07:09:27.987Z,1017.24
2019-01-10T07:10:29.164Z,1017.22
2019-01-10T07:11:27.946Z,1017.25
2019-01-10T07:12:27.940Z,1017.22
2019-01-10T07:13:27.920Z,1017.18
2019-01-10T07:14:27.914Z,1017.24
2019-01-10T07:15:27.928Z,1017.23
2019-01-10T07:16:27.887Z,1017.27
2019-01-10T07:17:27.886Z,1017.34
2019-01-10T07:18:27.865Z,1017.32
2019-01-10T07:19:27.859Z,1017.28
2019-01-10T07:20:27.858Z,1017.29
2019-01-10T07:21:27.833Z,1017.30
2019-01-10T07:22:27.840Z,1017.33
2019-01-10T07:23:27.808Z,1017.31
2019-01-10T07:24:27.804Z,1017.33
2019-01-10T07:25:27.845Z,1017.37
2019-01-10T07:26:27.777Z,1017.36
2019-01-10T07:27:27.806Z,1017.35
2019-01-10T07:28:27.757Z,1017.34
2019-01-10T07:29:27.748Z,1017.39
2019-01-10T07:30:35.749Z,1017.37
2019-01-10T07:31:28.737Z,1017.41
2019-01-10T07:32:27.711Z,1017.40
2019-01-10T07:33:27.708Z,1017.42
2019-01-10T07:34:27.687Z,1017.43
2019-01-10T07:35:27.676Z,1017.41
2019-01-10T07:36:27.679Z,1017.43
2019-01-10T07:37:27.660Z,1017.44
2019-01-10T07:38:27.645Z,1017.44
2019-01-10T07:39:27.646Z,1017.50
2019-01-10T07:40:27.623Z,1017.45
2019-01-10T07:41:27.643Z,1017.43
2019-01-10T07:42:27.606Z,1017.46
2019-01-10T07:43:27.595Z,1017.51
2019-01-10T07:44:27.604Z,1017.53
2019-01-10T07:45:27.573Z,1017.54
2019-01-10T07:46:27.563Z,1017.57
2019-01-10T07:47:27.596Z,1017.61
2019-01-10T07:48:27.559Z,1017.60
2019-01-10T07:49:27.546Z,1017.64
2019-01-10T07:50:27.516Z,1017.62
2019-01-10T07:51:27.500Z,1017.62
2019-01-10T07:52:27.496Z,1017.63
2019-01-10T07:53:27.534Z,1017.58
2019-01-10T07:54:27.474Z,1017.66
2019-01-10T07:55:27.462Z,1017.64
2019-01-10T07:56:27.453Z,1017.68
2019-01-10T07:57:27.441Z,1017.67
2019-01-10T07:58:27.457Z,1017.74
2019-01-10T07:59:27.428Z,1017.72
2019-01-10T08:00:27.416Z,1017.70
2019-01-10T08:01:27.389Z,1017.71
2019-01-10T08:02:27.380Z,1017.70
2019-01-10T08:03:27.374Z,1017.79
2019-01-10T08:04:27.405Z,1017.76
2019-01-10T08:05:27.354Z,1017.80
2019-01-10T08:06:27.340Z,1017.87
2019-01-10T08:07:27.328Z,1017.85
2019-01-10T08:08:27.314Z,1017.83
2019-01-10T08:09:27.308Z,1017.91
2019-01-10T08:10:27.323Z,1017.92
2019-01-10T08:11:27.279Z,1017.85
2019-01-10T08:12:27.269Z,1017.86
2019-01-10T08:13:27.259Z,1017.90
2019-01-10T08:14:27.246Z,1017.96
2019-01-10T08:15:27.242Z,1018.03
2019-01-10T08:16:27.245Z,1018.08
2019-01-10T08:17:27.217Z,1018.07
2019-01-10T08:18:27.203Z,1018.02
2019-01-10T08:19:27.198Z,1018.10
2019-01-10T08:20:27.182Z,1018.09
2019-01-10T08:21:27.173Z,1018.12
2019-01-10T08:22:28.076Z,1018.10
2019-01-10T08:23:27.147Z,1018.11
2019-01-10T08:24:27.170Z,1018.13
2019-01-10T08:25:27.125Z,1018.21
2019-01-10T08:26:27.133Z,1018.18
2019-01-10T08:27:27.119Z,1018.26
2019-01-10T08:28:27.092Z,1018.11
2019-01-10T08:29:27.085Z,1018.20
2019-01-10T08:30:27.076Z,1018.24
2019-01-10T08:31:27.107Z,1018.24
2019-01-10T08:32:27.053Z,1018.25
2019-01-10T08:33:27.042Z,1018.32
2019-01-10T08:34:27.025Z,1018.27
2019-01-10T08:35:27.015Z,1018.28
2019-01-10T08:36:32.307Z,1018.28
2019-01-10T08:37:28.024Z,1018.24
2019-01-10T08:38:26.983Z,1018.26
2019-01-10T08:39:26.975Z,1018.33
2019-01-10T08:40:26.961Z,1018.35
2019-01-10T08:41:26.948Z,1018.28
2019-01-10T08:42:26.952Z,1018.31
2019-01-10T08:43:26.925Z,1018.28
2019-01-10T08:44:26.915Z,1018.34
2019-01-10T08:45:26.903Z,1018.34
2019-01-10T08:46:26.894Z,1018.36
2019-01-10T08:47:26.901Z,1018.39
2019-01-10T08:48:26.902Z,1018.30
2019-01-10T08:49:26.861Z,1018.39
2019-01-10T08:50:26.847Z,1018.39
2019-01-10T08:51:26.843Z,1018.34
2019-01-10T08:52:26.830Z,1018.36
2019-01-10T08:53:26.855Z,1018.37
2019-01-10T08:54:26.810Z,1018.40
2019-01-10T08:55:26.792Z,1018.47
2019-01-10T08:56:26.784Z,1018.52
2019-01-10T08:57:26.769Z,1018.50
2019-01-10T08:58:26.761Z,1018.50
2019-01-10T08:59:33.813Z,1018.48
2019-01-10T09:00:26.742Z,1018.49
2019-01-10T09:01:26.735Z,1018.50
2019-01-10T09:02:26.715Z,1018.47
2019-01-10T09:03:26.707Z,1018.44
2019-01-10T09:04:26.707Z,1018.50
2019-01-10T09:05:26.687Z,1018.48
2019-01-10T09:06:26.677Z,1018.48
2019-01-10T09:07:26.666Z,1018.52
2019-01-10T09:08:26.687Z,1018.54
2019-01-10T09:09:26.698Z,1018.57
2019-01-10T09:10:26.629Z,1018.47
2019-01-10T09:11:26.668Z,1018.52
2019-01-10T09:12:26.679Z,1018.57
2019-01-10T09:13:26.592Z,1018.58
2019-01-10T09:14:26.635Z,1018.62
2019-01-10T09:15:34.465Z,1018.44
2019-01-10T09:16:27.562Z,1018.62
2019-01-10T09:17:26.552Z,1018.61
2019-01-10T09:18:26.540Z,1018.61
2019-01-10T09:19:26.529Z,1018.62
2019-01-10T09:20:26.565Z,1018.64
2019-01-10T09:21:26.511Z,1018.62
2019-01-10T09:22:26.523Z,1018.61
2019-01-10T09:23:26.485Z,1018.61
2019-01-10T09:24:26.490Z,1018.64
2019-01-10T09:25:26.468Z,1018.66
2019-01-10T09:26:29.395Z,1018.62
2019-01-10T09:27:27.473Z,1018.63
2019-01-10T09:28:26.435Z,1018.64
2019-01-10T09:29:26.426Z,1018.61
2019-01-10T09:30:26.409Z,1018.68
2019-01-10T09:31:26.437Z,1018.70
2019-01-10T09:32:26.381Z,1018.66
2019-01-10T09:33:26.372Z,1018.68
2019-01-10T09:34:26.366Z,1018.66
2019-01-10T09:35:26.357Z,1018.66
2019-01-10T09:36:26.338Z,1018.69
2019-01-10T09:37:26.359Z,1018.73
2019-01-10T09:38:26.323Z,1018.70
2019-01-10T09:39:26.311Z,1018.69
2019-01-10T09:40:26.295Z,1018.69
2019-01-10T09:41:26.308Z,1018.72
2019-01-10T09:42:26.319Z,1018.74
2019-01-10T09:43:26.266Z,1018.75
2019-01-10T09:44:26.252Z,1018.78
2019-01-10T09:45:26.244Z,1018.76
2019-01-10T09:46:26.233Z,1018.75
2019-01-10T09:47:26.223Z,1018.78
2019-01-10T09:48:26.233Z,1018.79
2019-01-10T09:49:26.201Z,1018.76
2019-01-10T09:50:26.190Z,1018.84
2019-01-10T09:51:26.173Z,1018.85
2019-01-10T09:52:26.168Z,1018.95
2019-01-10T09:53:26.198Z,1018.87
2019-01-10T09:54:26.146Z,1018.86
2019-01-10T09:55:26.135Z,1018.88
2019-01-10T09:56:26.662Z,1018.86
2019-01-10T09:57:26.112Z,1018.91
2019-01-10T09:58:26.659Z,1018.91
2019-01-10T09:59:26.087Z,1018.93
2019-01-10T10:00:26.076Z,1018.91
2019-01-10T10:01:26.068Z,1018.91
2019-01-10T10:02:26.052Z,1018.92
2019-01-10T10:03:26.043Z,1018.95
2019-01-10T10:04:26.055Z,1018.96
2019-01-10T10:05:26.027Z,1018.97
2019-01-10T10:06:26.015Z,1019.01
2019-01-10T10:07:26.003Z,1019.02
2019-01-10T10:08:25.987Z,1019.06
2019-01-10T10:09:26.277Z,1018.98
2019-01-10T10:10:26.016Z,1018.98
2019-01-10T10:11:33.851Z,1019.00
2019-01-10T10:12:26.944Z,1019.01
2019-01-10T10:13:25.934Z,1018.98
2019-01-10T10:14:25.927Z,1018.96
2019-01-10T10:15:25.911Z,1019.04
2019-01-10T10:16:25.926Z,1018.97
2019-01-10T10:17:25.886Z,1019.00
2019-01-10T10:18:25.890Z,1019.01
2019-01-10T10:19:25.870Z,1018.96
2019-01-10T10:20:25.902Z,1018.96
2019-01-10T10:21:25.849Z,1019.00
2019-01-10T10:22:25.836Z,1019.02
2019-01-10T10:23:26.918Z,1019.00
2019-01-10T10:24:25.814Z,1018.96
2019-01-10T10:25:26.227Z,1019.03
2019-01-10T10:26:25.814Z,1019.04
2019-01-10T10:27:25.785Z,1019.02
2019-01-10T10:28:25.776Z,1019.04
2019-01-10T10:29:25.759Z,1019.06
2019-01-10T10:30:25.750Z,1019.07
2019-01-10T10:31:25.766Z,1019.07
2019-01-10T10:32:25.746Z,1019.14
2019-01-10T10:33:25.736Z,1019.15
2019-01-10T10:34:25.710Z,1019.03
2019-01-10T10:35:25.695Z,1019.06
2019-01-10T10:36:25.698Z,1019.07
2019-01-10T10:37:25.672Z,1019.06
2019-01-10T10:38:25.664Z,1019.07
2019-01-10T10:39:25.645Z,1019.05
2019-01-10T10:40:25.635Z,1019.06
2019-01-10T10:41:25.658Z,1019.05
2019-01-10T10:42:25.620Z,1019.05
2019-01-10T10:43:25.682Z,1019.01
2019-01-10T10:44:25.659Z,1018.99
2019-01-10T10:45:25.679Z,1018.99
2019-01-10T10:46:25.574Z,1018.92
2019-01-10T10:47:25.557Z,1018.94
2019-01-10T10:48:25.587Z,1018.92
2019-01-10T10:49:25.535Z,1018.94
2019-01-10T10:50:25.524Z,1018.91
2019-01-10T10:51:25.519Z,1018.93
2019-01-10T10:52:25.505Z,1018.91
2019-01-10T10:53:25.533Z,1018.89
2019-01-10T10:54:25.487Z,1018.87
2019-01-10T10:55:25.515Z,1018.89
2019-01-10T10:56:25.483Z,1018.89
2019-01-10T10:57:25.453Z,1018.88
2019-01-10T10:58:25.450Z,1018.88
2019-01-10T10:59:25.425Z,1018.93
2019-01-10T11:00:25.418Z,1018.89
2019-01-10T11:01:25.417Z,1018.83
2019-01-10T11:02:25.406Z,1018.82
2019-01-10T11:03:25.429Z,1018.81
2019-01-10T11:04:25.370Z,1018.82
2019-01-10T11:05:25.359Z,1018.81
2019-01-10T11:06:25.408Z,1018.79
2019-01-10T11:07:25.338Z,1018.82
2019-01-10T11:08:25.331Z,1018.79
2019-01-10T11:09:26.168Z,1018.77
2019-01-10T11:10:26.158Z,1018.79
2019-01-10T11:11:25.299Z,1018.80
2019-01-10T11:12:25.286Z,1018.85
2019-01-10T11:13:25.287Z,1018.77
2019-01-10T11:14:25.271Z,1018.76
2019-01-10T11:15:25.250Z,1018.83
2019-01-10T11:16:25.282Z,1018.83
2019-01-10T11:17:25.231Z,1018.82
2019-01-10T11:18:25.216Z,1018.83
2019-01-10T11:19:25.214Z,1018.82
2019-01-10T11:20:25.218Z,1018.84
2019-01-10T11:21:25.234Z,1018.82
2019-01-10T11:22:25.215Z,1018.81
2019-01-10T11:23:25.756Z,1018.83
2019-01-10T11:24:25.677Z,1018.85
2019-01-10T11:25:25.146Z,1018.83
2019-01-10T11:26:25.137Z,1018.84
2019-01-10T11:27:25.218Z,1018.82
2019-01-10T11:28:25.107Z,1018.79
2019-01-10T11:29:25.107Z,1018.73
2019-01-10T11:30:25.093Z,1018.72
2019-01-10T11:31:25.075Z,1018.75
2019-01-10T11:32:25.070Z,1018.72
2019-01-10T11:33:25.200Z,1018.73
2019-01-10T11:34:25.044Z,1018.79
2019-01-10T11:35:25.035Z,1018.77
2019-01-10T11:36:25.053Z,1018.77
2019-01-10T11:37:25.053Z,1018.71
2019-01-10T11:38:24.998Z,1018.75
2019-01-10T11:39:24.985Z,1018.74
2019-01-10T11:40:24.979Z,1018.72
2019-01-10T11:41:24.962Z,1018.73
2019-01-10T11:42:25.028Z,1018.73
2019-01-10T11:43:24.944Z,1018.79
2019-01-10T11:44:24.936Z,1018.72
2019-01-10T11:45:24.923Z,1018.78
2019-01-10T11:46:24.910Z,1018.78
2019-01-10T11:47:24.895Z,1018.79
2019-01-10T11:48:24.910Z,1018.83
2019-01-10T11:49:24.902Z,1018.81
2019-01-10T11:50:24.871Z,1018.75
2019-01-10T11:51:24.856Z,1018.75
2019-01-10T11:52:24.845Z,1018.78
2019-01-10T11:53:24.863Z,1018.75
2019-01-10T11:54:24.826Z,1018.71
2019-01-10T11:55:24.815Z,1018.70
2019-01-10T11:56:24.797Z,1018.68
2019-01-10T11:57:24.790Z,1018.70
2019-01-10T11:58:24.842Z,1018.67
2019-01-10T11:59:24.771Z,1018.63
2019-01-10T12:00:24.759Z,1018.56
2019-01-10T12:01:24.758Z,1018.59
2019-01-10T12:02:24.737Z,1018.58
2019-01-10T12:03:24.725Z,1018.62
2019-01-10T12:04:24.741Z,1018.56
2019-01-10T12:05:24.706Z,1018.58